Time;durP1;ratioP1;P1;durP2;ratioP2;P2;SDS_P1;SDS_P2;PMS_P1;PMS_P2;Temp;Humidity;BMP_temperature;BMP_pressure;BME280_temperature;BME280_humidity;BME280_pressure;Samples;Min_cycle;Max_cycle;Signal;HPM_P1;HPM_P2
2021/04/26 00:02:11;;;;;;;17.40;7.80;;;2.20;99.90;;;;;;4439944;32;20233;-73
2021/04/26 00:04:38;;;;;;;14.90;7.83;;;2.30;99.90;;;;;;4440828;32;20219;-73
2021/04/26 00:07:06;;;;;;;16.57;8.00;;;2.30;99.90;;;;;;4441197;32;20229;-72
2021/04/26 00:09:32;;;;;;;17.97;8.43;;;2.40;99.90;;;;;;4439790;32;20151;-73
2021/04/26 00:11:58;;;;;;;16.13;8.00;;;2.40;99.90;;;;;;4439750;32;20172;-72
2021/04/26 00:14:25;;;;;;;18.77;9.07;;;2.30;99.90;;;;;;4440926;32;20193;-73
2021/04/26 00:16:51;;;;;;;19.53;9.60;;;2.20;99.90;;;;;;4441113;32;20147;-72
2021/04/26 00:19:18;;;;;;;23.07;9.93;;;2.10;99.90;;;;;;4439729;32;20166;-73
2021/04/26 00:21:44;;;;;;;19.83;9.40;;;2.00;99.90;;;;;;4439643;32;20431;-73
2021/04/26 00:24:11;;;;;;;20.43;9.23;;;2.00;99.90;;;;;;4439608;32;20366;-73
2021/04/26 00:26:37;;;;;;;19.47;10.07;;;2.00;99.90;;;;;;4439503;32;20146;-73
2021/04/26 00:29:04;;;;;;;18.77;10.50;;;2.00;99.90;;;;;;4440985;32;20139;-73
2021/04/26 00:31:30;;;;;;;22.80;10.73;;;2.00;99.90;;;;;;4439274;32;20420;-73
2021/04/26 00:33:57;;;;;;;22.83;11.13;;;2.00;99.90;;;;;;4439250;32;20201;-73
2021/04/26 00:36:25;;;;;;;23.33;11.67;;;1.90;99.90;;;;;;4439464;32;20420;-73
2021/04/26 00:38:52;;;;;;;24.27;11.90;;;2.00;99.90;;;;;;4441050;32;20143;-73
2021/04/26 00:41:18;;;;;;;24.17;13.30;;;2.00;99.90;;;;;;4439532;32;20141;-73
2021/04/26 00:43:44;;;;;;;29.43;13.50;;;2.00;99.90;;;;;;4439488;32;20511;-73
2021/04/26 00:46:12;;;;;;;29.43;13.10;;;2.00;99.90;;;;;;4439537;32;20188;-73
2021/04/26 00:48:39;;;;;;;24.60;12.83;;;2.00;99.90;;;;;;4439653;32;20464;-73
2021/04/26 00:51:05;;;;;;;29.73;13.83;;;2.00;99.90;;;;;;4439440;32;20168;-74
2021/04/26 00:53:31;;;;;;;26.77;13.27;;;2.00;99.90;;;;;;4438884;32;20423;-74
2021/04/26 00:55:58;;;;;;;25.07;13.07;;;2.00;99.90;;;;;;4439498;32;20411;-73
2021/04/26 00:58:25;;;;;;;26.50;13.60;;;2.00;99.90;;;;;;4439367;32;20207;-73
2021/04/26 01:00:51;;;;;;;25.10;13.20;;;2.00;99.90;;;;;;4438840;32;20414;-73
2021/04/26 01:03:18;;;;;;;26.47;14.33;;;2.00;99.90;;;;;;4439312;32;20514;-73
2021/04/26 01:05:45;;;;;;;29.73;14.17;;;1.90;99.90;;;;;;4440725;32;20142;-73
2021/04/26 01:08:11;;;;;;;27.10;13.50;;;2.00;99.90;;;;;;4440778;32;20203;-73
2021/04/26 01:10:38;;;;;;;24.20;13.20;;;2.00;99.90;;;;;;4440883;32;20180;-73
2021/04/26 01:13:35;;;;;;;24.20;13.27;;;1.90;99.90;;;;;;4439278;32;20469;-73
2021/04/26 01:16:20;;;;;;;25.23;12.73;;;1.80;99.90;;;;;;4440803;32;20169;-73
2021/04/26 01:19:17;;;;;;;22.90;12.27;;;1.80;99.90;;;;;;4439390;32;20211;-73
2021/04/26 01:21:52;;;;;;;25.43;12.73;;;1.80;99.90;;;;;;4439227;32;20205;-73
2021/04/26 01:24:22;;;;;;;26.77;12.03;;;1.80;99.90;;;;;;4439251;32;20142;-73
2021/04/26 01:27:09;;;;;;;22.17;11.53;;;1.80;99.90;;;;;;4439157;32;20154;-73
2021/04/26 01:30:00;;;;;;;24.47;11.80;;;1.90;99.90;;;;;;4439160;32;20142;-73
2021/04/26 01:32:39;;;;;;;23.70;12.03;;;1.80;99.90;;;;;;4439155;32;20388;-73
2021/04/26 01:35:07;;;;;;;22.07;12.17;;;1.80;99.90;;;;;;4439648;32;20177;-73
2021/04/26 01:37:35;;;;;;;24.20;11.90;;;1.80;99.90;;;;;;4440549;32;20193;-73
2021/04/26 01:40:05;;;;;;;24.67;11.77;;;1.80;99.90;;;;;;4442010;32;20218;-74
2021/04/26 01:42:33;;;;;;;25.03;11.60;;;1.70;99.90;;;;;;4443312;32;20176;-73
2021/04/26 01:45:06;;;;;;;18.73;10.67;;;1.80;99.90;;;;;;4442053;32;20154;-74
2021/04/26 01:47:34;;;;;;;22.03;10.97;;;1.70;99.90;;;;;;4441655;32;20154;-74
2021/04/26 01:50:05;;;;;;;25.00;12.17;;;1.70;99.90;;;;;;4441687;32;20139;-73
2021/04/26 01:52:33;;;;;;;24.67;12.87;;;1.70;99.90;;;;;;4443742;32;20150;-73
2021/04/26 01:55:01;;;;;;;26.00;13.13;;;1.80;99.90;;;;;;4441509;32;20147;-73
2021/04/26 01:57:28;;;;;;;28.77;13.93;;;1.70;99.90;;;;;;4441667;32;20164;-73
2021/04/26 01:59:56;;;;;;;22.77;12.07;;;1.80;99.90;;;;;;4441407;32;20208;-73
2021/04/26 02:02:23;;;;;;;26.70;13.47;;;1.80;99.90;;;;;;4441339;32;20207;-74
2021/04/26 02:04:51;;;;;;;31.77;16.87;;;1.70;99.90;;;;;;4442454;32;20518;-73
2021/04/26 02:07:18;;;;;;;33.30;16.73;;;1.70;99.90;;;;;;4441705;32;20174;-73
2021/04/26 02:09:46;;;;;;;34.87;17.07;;;1.70;99.90;;;;;;4441376;32;20165;-73
2021/04/26 02:12:14;;;;;;;31.13;16.60;;;1.60;99.90;;;;;;4440852;32;20165;-73
2021/04/26 02:14:41;;;;;;;32.60;16.03;;;1.50;99.90;;;;;;4441404;32;20276;-73
2021/04/26 02:17:08;;;;;;;38.77;16.87;;;1.40;99.90;;;;;;4441399;32;20440;-72
2021/04/26 02:19:35;;;;;;;31.07;16.23;;;1.40;99.90;;;;;;4441411;32;20138;-74
2021/04/26 02:22:02;;;;;;;33.10;16.07;;;1.30;99.90;;;;;;4442776;32;20150;-73
2021/04/26 02:24:29;;;;;;;32.00;16.57;;;1.30;99.90;;;;;;4442696;32;20166;-72
2021/04/26 02:26:58;;;;;;;33.73;17.13;;;1.30;99.90;;;;;;4441072;32;20173;-73
2021/04/26 02:29:25;;;;;;;33.77;16.17;;;1.30;99.90;;;;;;4441581;32;20139;-73
2021/04/26 02:32:01;;;;;;;32.13;15.40;;;1.30;99.90;;;;;;4441120;32;20168;-73
2021/04/26 02:34:38;;;;;;;29.23;14.93;;;1.30;99.90;;;;;;4441562;32;20165;-74
2021/04/26 02:37:12;;;;;;;30.20;15.50;;;1.30;99.90;;;;;;4442517;32;20189;-74
2021/04/26 02:39:40;;;;;;;30.27;14.80;;;1.40;99.90;;;;;;4442835;32;20146;-73
2021/04/26 02:42:07;;;;;;;31.70;15.57;;;1.30;99.90;;;;;;4440944;32;20181;-73
2021/04/26 02:44:36;;;;;;;29.40;15.03;;;1.30;99.90;;;;;;4440880;32;20143;-73
2021/04/26 02:47:07;;;;;;;29.57;13.87;;;1.40;99.90;;;;;;4440825;32;20170;-73
2021/04/26 02:49:35;;;;;;;26.60;13.53;;;1.50;99.90;;;;;;4440773;32;20150;-74
2021/04/26 02:52:03;;;;;;;23.00;13.37;;;1.50;99.90;;;;;;4440787;32;20389;-73
2021/04/26 02:54:34;;;;;;;22.80;11.80;;;1.50;99.90;;;;;;4442423;32;20147;-73
2021/04/26 02:57:02;;;;;;;23.40;11.37;;;1.50;99.90;;;;;;4441727;32;20226;-73
2021/04/26 02:59:30;;;;;;;22.30;11.67;;;1.60;99.90;;;;;;4440813;32;20154;-73
2021/04/26 03:01:57;;;;;;;22.77;11.00;;;1.70;99.90;;;;;;4441361;32;20138;-73
2021/04/26 03:04:28;;;;;;;21.50;11.23;;;1.60;99.90;;;;;;4441523;32;20147;-73
2021/04/26 03:06:57;;;;;;;26.27;11.40;;;1.60;99.90;;;;;;4442003;32;20139;-73
2021/04/26 03:09:24;;;;;;;22.33;10.60;;;1.60;99.90;;;;;;4440845;32;20147;-73
2021/04/26 03:11:53;;;;;;;23.27;10.67;;;1.60;99.90;;;;;;4442024;32;20449;-73
2021/04/26 03:14:20;;;;;;;22.83;10.50;;;1.60;99.90;;;;;;4440546;32;20198;-73
2021/04/26 03:16:51;;;;;;;20.40;11.17;;;1.60;99.90;;;;;;4439956;32;20528;-73
2021/04/26 03:19:19;;;;;;;20.70;10.83;;;1.70;99.90;;;;;;4442108;32;20219;-72
2021/04/26 03:21:48;;;;;;;20.00;11.03;;;1.60;99.90;;;;;;4440569;32;20187;-73
2021/04/26 03:24:17;;;;;;;22.47;11.30;;;1.70;99.90;;;;;;4440285;32;20164;-73
2021/04/26 03:26:46;;;;;;;20.10;10.57;;;1.60;99.90;;;;;;4441643;32;20142;-72
2021/04/26 03:29:20;;;;;;;24.07;12.23;;;1.70;99.90;;;;;;4440252;32;20173;-72
2021/04/26 03:31:48;;;;;;;20.37;10.37;;;1.80;99.90;;;;;;4440507;32;20180;-72
2021/04/26 03:34:16;;;;;;;20.10;10.87;;;1.80;99.90;;;;;;4439585;32;20150;-72
2021/04/26 03:36:44;;;;;;;22.07;10.90;;;1.80;99.90;;;;;;4440392;32;20429;-73
2021/04/26 03:39:14;;;;;;;20.53;10.13;;;1.90;99.90;;;;;;4440028;32;20147;-73
2021/04/26 03:41:41;;;;;;;19.37;9.97;;;1.90;99.90;;;;;;4440091;32;20395;-72
2021/04/26 03:44:18;;;;;;;18.40;10.20;;;2.00;99.90;;;;;;4440098;32;20192;-73
2021/04/26 03:46:56;;;;;;;20.23;9.50;;;2.00;99.90;;;;;;4441501;32;20191;-74
2021/04/26 03:49:24;;;;;;;20.07;9.47;;;1.70;99.90;;;;;;4441514;32;20214;-73
2021/04/26 03:51:51;;;;;;;18.30;9.13;;;1.80;99.90;;;;;;4439793;32;20173;-73
2021/04/26 03:54:18;;;;;;;19.63;9.50;;;1.90;99.90;;;;;;4439298;32;20143;-73
2021/04/26 03:56:45;;;;;;;17.13;9.20;;;2.00;99.90;;;;;;4439729;32;20201;-74
2021/04/26 03:59:12;;;;;;;15.93;8.70;;;2.10;99.90;;;;;;4439894;32;20190;-73
2021/04/26 04:01:38;;;;;;;16.53;8.20;;;1.90;99.90;;;;;;4439301;32;20464;-74
2021/04/26 04:04:06;;;;;;;18.37;9.27;;;1.90;99.90;;;;;;4440751;32;20568;-74
2021/04/26 04:06:32;;;;;;;17.13;7.63;;;2.10;99.90;;;;;;4441274;32;20135;-74
2021/04/26 04:09:04;;;;;;;15.87;7.70;;;2.10;99.90;;;;;;4441166;32;20198;-73
2021/04/26 04:11:31;;;;;;;16.23;7.63;;;2.00;99.90;;;;;;4440292;32;20150;-74
2021/04/26 04:13:57;;;;;;;15.27;7.60;;;2.20;99.90;;;;;;4439740;32;20143;-74
2021/04/26 04:16:26;;;;;;;16.33;7.23;;;2.10;99.90;;;;;;4440558;32;20165;-74
2021/04/26 04:18:52;;;;;;;15.97;7.10;;;2.20;99.90;;;;;;4439660;32;20161;-73
2021/04/26 04:21:19;;;;;;;15.60;6.50;;;2.20;99.90;;;;;;4439651;32;20169;-74
2021/04/26 04:23:45;;;;;;;14.40;6.67;;;2.40;99.90;;;;;;4441023;32;20152;-73
2021/04/26 04:26:12;;;;;;;12.77;6.30;;;2.40;99.90;;;;;;4440434;32;20166;-73
2021/04/26 04:28:39;;;;;;;14.10;6.37;;;2.20;99.90;;;;;;4439569;32;20147;-73
2021/04/26 04:31:05;;;;;;;14.13;6.83;;;2.20;99.90;;;;;;4439654;32;20193;-74
2021/04/26 04:33:32;;;;;;;11.93;6.30;;;2.30;99.90;;;;;;4441005;32;20197;-73
2021/04/26 04:35:59;;;;;;;12.87;6.10;;;2.30;99.90;;;;;;4439535;32;20196;-73
2021/04/26 04:38:26;;;;;;;13.97;6.33;;;2.30;99.90;;;;;;4439494;32;20135;-73
2021/04/26 04:40:54;;;;;;;12.17;6.13;;;2.30;99.90;;;;;;4438818;32;20169;-73
2021/04/26 04:43:21;;;;;;;10.67;5.77;;;2.40;99.90;;;;;;4439196;32;20147;-74
2021/04/26 04:45:48;;;;;;;13.77;5.67;;;2.50;99.90;;;;;;4439261;32;20566;-74
2021/04/26 04:48:14;;;;;;;12.50;5.50;;;2.60;99.90;;;;;;4438810;32;20216;-74
2021/04/26 04:50:41;;;;;;;11.17;6.00;;;2.80;99.90;;;;;;4437338;32;20158;-74
2021/04/26 04:53:08;;;;;;;8.20;4.63;;;2.80;99.90;;;;;;4437362;32;20197;-74
2021/04/26 04:55:35;;;;;;;9.33;4.87;;;2.80;99.90;;;;;;4437167;32;20167;-74
2021/04/26 04:58:02;;;;;;;9.80;4.63;;;2.60;99.90;;;;;;4437169;32;20197;-74
2021/04/26 05:00:29;;;;;;;12.40;4.73;;;2.70;99.90;;;;;;4437459;32;20150;-74
2021/04/26 05:02:55;;;;;;;9.13;4.73;;;2.70;99.90;;;;;;4439172;32;20261;-74
2021/04/26 05:05:22;;;;;;;9.83;4.30;;;2.60;99.90;;;;;;4440752;32;20143;-74
2021/04/26 05:07:48;;;;;;;10.40;3.90;;;2.60;99.90;;;;;;4439501;32;20151;-73
2021/04/26 05:10:14;;;;;;;7.17;4.23;;;2.80;99.90;;;;;;4439061;32;20146;-68
2021/04/26 05:12:41;;;;;;;7.37;3.93;;;2.90;99.90;;;;;;4439227;32;20507;-68
2021/04/26 05:15:08;;;;;;;6.63;3.43;;;2.80;99.90;;;;;;4443090;32;20542;-68
2021/04/26 05:17:34;;;;;;;7.40;3.80;;;2.70;99.90;;;;;;4441681;32;20201;-68
2021/04/26 05:20:03;;;;;;;8.33;3.90;;;2.80;99.90;;;;;;4441962;32;20179;-68
2021/04/26 05:22:30;;;;;;;6.60;3.30;;;2.90;99.90;;;;;;4441550;32;20458;-67
2021/04/26 05:24:57;;;;;;;6.33;3.53;;;3.00;99.90;;;;;;4443604;32;20150;-68
2021/04/26 05:27:23;;;;;;;6.37;3.37;;;3.20;99.90;;;;;;4441794;32;20164;-67
2021/04/26 05:29:50;;;;;;;6.43;3.40;;;3.40;99.90;;;;;;4441716;32;20195;-67
2021/04/26 05:32:16;;;;;;;8.40;3.83;;;3.70;99.90;;;;;;4443073;32;20179;-67
2021/04/26 05:34:43;;;;;;;7.47;3.30;;;3.90;99.90;;;;;;4441943;32;20472;-69
2021/04/26 05:37:09;;;;;;;6.40;3.40;;;4.00;99.90;;;;;;4441288;32;20150;-68
2021/04/26 05:39:36;;;;;;;9.37;3.10;;;3.90;98.70;;;;;;4441710;32;20497;-66
2021/04/26 05:42:03;;;;;;;7.50;3.80;;;3.90;97.70;;;;;;4442563;32;20223;-68
2021/04/26 05:44:29;;;;;;;7.37;3.80;;;3.90;97.20;;;;;;4441754;32;20472;-68
2021/04/26 05:46:56;;;;;;;6.93;3.50;;;4.00;97.20;;;;;;4443126;32;20465;-68
2021/04/26 05:49:22;;;;;;;8.60;3.10;;;4.00;96.20;;;;;;4443098;32;20401;-68
2021/04/26 05:51:49;;;;;;;5.40;2.83;;;3.80;95.50;;;;;;4442547;32;20207;-70
2021/04/26 05:54:15;;;;;;;5.83;2.93;;;3.90;95.90;;;;;;4437403;32;20162;-73
2021/04/26 05:56:41;;;;;;;6.70;3.00;;;3.50;95.20;;;;;;4440166;32;20528;-74
2021/04/26 05:59:08;;;;;;;4.93;2.63;;;3.40;96.20;;;;;;4437689;32;20188;-75
2021/04/26 06:01:34;;;;;;;4.70;2.80;;;3.60;96.20;;;;;;4436790;32;20579;-76
2021/04/26 06:04:01;;;;;;;4.50;2.40;;;3.80;96.20;;;;;;4436923;32;20158;-75
2021/04/26 06:06:28;;;;;;;4.20;2.27;;;4.00;95.10;;;;;;4436973;32;20500;-82
2021/04/26 06:08:54;;;;;;;6.73;2.13;;;4.10;94.60;;;;;;4436622;32;20327;-80
2021/04/26 06:11:20;;;;;;;4.73;2.67;;;4.10;93.90;;;;;;4438210;32;20182;-79
2021/04/26 06:13:47;;;;;;;3.93;2.20;;;4.30;94.50;;;;;;4437852;32;20574;-80
2021/04/26 06:16:15;;;;;;;4.23;2.00;;;4.40;93.00;;;;;;4440270;32;20181;-82
2021/04/26 06:18:42;;;;;;;5.43;2.50;;;4.40;92.80;;;;;;4441954;32;20150;-75
2021/04/26 06:21:09;;;;;;;6.07;2.70;;;4.50;92.90;;;;;;4442122;32;20182;-75
2021/04/26 06:23:35;;;;;;;4.23;2.47;;;4.60;93.00;;;;;;4437131;32;20528;-75
2021/04/26 06:26:02;;;;;;;4.27;2.40;;;4.70;93.20;;;;;;4439710;32;20144;-75
2021/04/26 06:28:28;;;;;;;5.20;2.37;;;4.80;92.90;;;;;;4440873;32;20203;-73
2021/04/26 06:30:55;;;;;;;6.93;2.20;;;5.00;92.90;;;;;;4440179;32;20188;-74
2021/04/26 06:33:21;;;;;;;5.50;2.37;;;5.10;92.30;;;;;;4440661;32;20186;-74
2021/04/26 06:35:50;;;;;;;4.00;2.13;;;5.20;91.90;;;;;;4440656;32;20247;-74
2021/04/26 06:38:17;;;;;;;3.47;1.93;;;5.40;91.50;;;;;;4440686;32;20185;-74
2021/04/26 06:40:44;;;;;;;5.67;1.90;;;5.40;91.00;;;;;;4442008;32;20144;-73
2021/04/26 06:43:11;;;;;;;2.97;1.93;;;5.40;88.70;;;;;;4441834;32;20148;-73
2021/04/26 06:45:39;;;;;;;2.33;1.80;;;5.40;89.40;;;;;;4440309;32;20173;-74
2021/04/26 06:48:12;;;;;;;3.83;2.10;;;5.30;88.60;;;;;;4440557;32;20198;-74
2021/04/26 06:50:38;;;;;;;3.70;2.00;;;5.30;87.80;;;;;;4441964;32;20200;-75
2021/04/26 06:53:05;;;;;;;4.23;2.00;;;4.70;86.00;;;;;;4440618;32;20143;-73
2021/04/26 06:55:31;;;;;;;4.50;2.23;;;4.80;87.80;;;;;;4440529;32;20196;-74
2021/04/26 06:57:58;;;;;;;4.30;2.20;;;4.70;87.30;;;;;;4440479;32;20164;-75
2021/04/26 07:00:26;;;;;;;2.87;1.53;;;4.70;88.70;;;;;;4440292;32;20179;-72
2021/04/26 07:02:52;;;;;;;2.37;1.60;;;4.80;86.30;;;;;;4440256;32;20584;-73
2021/04/26 07:05:19;;;;;;;2.83;1.60;;;5.00;83.80;;;;;;4442011;32;20147;-73
2021/04/26 07:07:46;;;;;;;4.27;1.70;;;5.10;83.50;;;;;;4440533;32;20166;-74
2021/04/26 07:10:13;;;;;;;5.53;2.00;;;5.10;83.20;;;;;;4439575;32;20212;-73
2021/04/26 07:12:39;;;;;;;4.07;1.83;;;5.00;81.50;;;;;;4441928;32;20245;-73
2021/04/26 07:15:08;;;;;;;2.93;1.63;;;4.90;83.60;;;;;;4440291;32;20139;-73
2021/04/26 07:17:34;;;;;;;4.20;1.50;;;5.20;80.80;;;;;;4440235;32;20264;-73
2021/04/26 07:20:06;;;;;;;4.23;1.57;;;5.50;80.10;;;;;;4440196;32;20166;-74
2021/04/26 07:22:32;;;;;;;3.17;1.30;;;5.90;80.70;;;;;;4440525;32;20196;-75
2021/04/26 07:24:59;;;;;;;2.50;1.10;;;5.90;76.30;;;;;;4440166;32;20267;-73
2021/04/26 07:27:25;;;;;;;4.47;1.10;;;5.70;73.60;;;;;;4438766;32;20184;-73
2021/04/26 07:29:52;;;;;;;2.83;1.10;;;5.70;73.20;;;;;;4440126;32;20507;-72
2021/04/26 07:32:18;;;;;;;2.03;1.00;;;5.90;74.70;;;;;;4439958;32;20494;-73
2021/04/26 07:34:45;;;;;;;3.47;1.87;;;6.20;72.90;;;;;;4439882;32;20189;-73
2021/04/26 07:37:11;;;;;;;2.03;1.20;;;6.20;70.80;;;;;;4441161;32;20165;-75
2021/04/26 07:39:38;;;;;;;3.00;1.10;;;6.30;70.00;;;;;;4438954;32;20448;-74
2021/04/26 07:42:05;;;;;;;1.30;1.03;;;6.30;70.10;;;;;;4440271;32;20407;-73
2021/04/26 07:44:32;;;;;;;1.67;1.00;;;5.90;68.40;;;;;;4439888;32;20169;-73
2021/04/26 07:46:58;;;;;;;3.43;1.20;;;5.50;66.50;;;;;;4440593;32;20192;-73
2021/04/26 07:49:25;;;;;;;2.17;1.00;;;5.50;67.30;;;;;;4439485;32;20278;-73
2021/04/26 07:51:52;;;;;;;1.57;1.10;;;5.90;67.90;;;;;;4441170;32;20192;-73
2021/04/26 07:54:19;;;;;;;1.60;1.10;;;5.90;68.80;;;;;;4439161;32;20142;-73
2021/04/26 07:56:46;;;;;;;2.00;1.30;;;6.50;71.90;;;;;;4439505;32;20150;-74
2021/04/26 07:59:12;;;;;;;1.37;1.00;;;6.60;66.60;;;;;;4440975;32;20197;-73
2021/04/26 08:01:39;;;;;;;1.93;1.10;;;6.70;66.50;;;;;;4440911;32;20218;-74
2021/04/26 08:04:06;;;;;;;2.00;1.07;;;6.50;67.60;;;;;;4439308;32;20158;-73
2021/04/26 08:06:33;;;;;;;1.90;1.10;;;6.40;65.50;;;;;;4438998;32;20247;-72
2021/04/26 08:09:00;;;;;;;3.30;1.20;;;6.90;64.20;;;;;;4438201;32;20170;-73
2021/04/26 08:11:26;;;;;;;3.10;1.17;;;7.40;61.80;;;;;;4439395;32;20199;-74
2021/04/26 08:13:52;;;;;;;1.30;1.00;;;7.40;59.80;;;;;;4439492;32;20148;-75
2021/04/26 08:16:20;;;;;;;1.47;0.93;;;7.40;61.20;;;;;;4439503;32;20154;-74
2021/04/26 08:18:51;;;;;;;3.73;1.10;;;6.80;58.40;;;;;;4439579;32;20192;-74
2021/04/26 08:21:18;;;;;;;7.47;0.90;;;6.10;59.90;;;;;;4439334;32;20173;-74
2021/04/26 08:23:45;;;;;;;2.03;1.10;;;5.90;61.80;;;;;;4438831;32;20165;-73
2021/04/26 08:26:11;;;;;;;1.63;0.90;;;6.00;62.80;;;;;;4440667;32;20154;-77
2021/04/26 08:28:38;;;;;;;3.70;1.17;;;5.80;61.90;;;;;;4439212;32;20424;-75
2021/04/26 08:31:07;;;;;;;2.97;1.07;;;5.70;61.60;;;;;;4439136;32;20169;-74
2021/04/26 08:33:35;;;;;;;2.07;0.93;;;5.70;62.70;;;;;;4438692;32;20201;-73
2021/04/26 08:36:03;;;;;;;2.27;1.00;;;6.20;61.80;;;;;;4437762;32;20158;-74
2021/04/26 08:38:29;;;;;;;1.17;0.80;;;7.20;60.00;;;;;;4439148;32;20221;-77
2021/04/26 08:40:56;;;;;;;1.93;0.80;;;8.30;57.20;;;;;;4439081;32;20507;-76
2021/04/26 08:43:23;;;;;;;1.00;0.90;;;8.90;55.70;;;;;;4439207;32;20304;-75
2021/04/26 08:45:49;;;;;;;1.80;0.77;;;9.30;54.40;;;;;;4438891;32;20138;-76
2021/04/26 08:48:18;;;;;;;1.30;0.90;;;9.70;53.30;;;;;;4439676;32;20225;-76
2021/04/26 08:50:45;;;;;;;2.00;1.00;;;10.40;51.70;;;;;;4442178;32;20198;-74
2021/04/26 08:53:12;;;;;;;1.07;0.83;;;9.70;50.40;;;;;;4442220;32;20177;-76
2021/04/26 08:55:39;;;;;;;2.20;1.10;;;9.50;52.10;;;;;;4443447;32;20177;-75
2021/04/26 08:58:06;;;;;;;1.80;0.87;;;9.50;52.00;;;;;;4443487;32;20235;-74
2021/04/26 09:00:33;;;;;;;1.73;1.00;;;8.80;52.90;;;;;;4443704;32;20170;-75
2021/04/26 09:03:02;;;;;;;1.13;0.90;;;7.80;55.10;;;;;;4442800;32;20163;-77
2021/04/26 09:05:30;;;;;;;1.50;1.00;;;6.90;58.90;;;;;;4442003;32;20145;-75
2021/04/26 09:07:58;;;;;;;2.40;0.90;;;7.20;60.60;;;;;;4441737;32;20150;-75
2021/04/26 09:11:02;;;;;;;2.10;1.07;;;7.40;59.40;;;;;;4442126;32;20164;-75
2021/04/26 09:13:31;;;;;;;4.50;0.80;;;7.40;58.90;;;;;;4379333;32;20490;-75
2021/04/26 09:16:10;;;;;;;1.40;0.90;;;7.20;55.80;;;;;;4378772;32;20159;-73
2021/04/26 09:18:57;;;;;;;1.10;1.00;;;7.50;54.10;;;;;;4380428;32;20609;-74
2021/04/26 09:21:33;;;;;;;1.53;0.90;;;8.10;53.60;;;;;;4378791;32;20289;-73
2021/04/26 09:24:25;;;;;;;1.00;0.80;;;8.50;50.60;;;;;;4378453;32;20159;-73
2021/04/26 09:26:53;;;;;;;1.47;0.90;;;8.80;50.40;;;;;;4378673;32;20305;-74
2021/04/26 09:29:23;;;;;;;3.10;1.00;;;8.90;50.60;;;;;;4378783;32;20258;-75
2021/04/26 09:32:13;;;;;;;1.77;0.80;;;8.80;51.70;;;;;;4380274;32;20197;-75
2021/04/26 09:34:51;;;;;;;1.57;0.97;;;8.60;54.30;;;;;;4380641;32;20164;-74
2021/04/26 09:37:27;;;;;;;1.00;0.80;;;8.50;53.90;;;;;;4380686;32;20478;-74
2021/04/26 09:40:10;;;;;;;2.30;1.00;;;7.80;51.40;;;;;;4380180;32;20147;-73
2021/04/26 09:42:56;;;;;;;1.57;1.00;;;7.80;53.50;;;;;;4378649;32;20317;-73
2021/04/26 09:45:31;;;;;;;1.27;0.90;;;7.70;53.00;;;;;;4378193;32;20566;-75
2021/04/26 09:48:19;;;;;;;2.03;0.87;;;7.90;51.90;;;;;;4382958;32;20244;-74
2021/04/26 09:50:55;;;;;;;1.67;1.03;;;8.80;50.20;;;;;;4427516;32;20150;-76
2021/04/26 09:53:24;;;;;;;1.03;0.70;;;9.20;48.40;;;;;;4427456;32;20135;-73
2021/04/26 09:55:52;;;;;;;2.13;0.90;;;9.50;46.80;;;;;;4426255;32;20166;-73
2021/04/26 09:58:20;;;;;;;3.23;1.00;;;9.80;47.30;;;;;;4425183;32;20188;-74
2021/04/26 10:00:47;;;;;;;1.27;0.70;;;9.00;47.50;;;;;;4425178;32;20138;-74
2021/04/26 10:03:15;;;;;;;1.77;0.87;;;8.70;49.00;;;;;;4426453;32;20205;-74
2021/04/26 10:05:44;;;;;;;1.63;1.10;;;8.10;48.30;;;;;;4427558;32;20193;-73
2021/04/26 10:08:13;;;;;;;4.00;0.93;;;7.30;49.70;;;;;;4426093;32;20180;-73
2021/04/26 10:10:43;;;;;;;0.97;0.73;;;7.50;50.00;;;;;;4425946;32;20212;-74
2021/04/26 10:13:10;;;;;;;2.23;0.90;;;8.20;50.10;;;;;;4425326;32;20151;-73
2021/04/26 10:15:37;;;;;;;1.07;0.70;;;9.30;50.30;;;;;;4425773;32;20232;-75
2021/04/26 10:18:08;;;;;;;3.63;0.90;;;10.20;46.80;;;;;;4427429;32;20194;-75
2021/04/26 10:20:41;;;;;;;2.03;0.83;;;11.00;44.60;;;;;;4439032;32;20493;-72
2021/04/26 10:23:43;;;;;;;2.40;0.80;;;11.20;44.30;;;;;;4442642;32;20210;-70
2021/04/26 10:26:50;;;;;;;1.90;0.77;;;10.40;43.40;;;;;;4440851;32;20199;-72
2021/04/26 10:29:24;;;;;;;2.70;0.90;;;10.50;45.10;;;;;;4442089;32;20192;-74
2021/04/26 10:32:00;;;;;;;0.90;0.70;;;9.60;46.60;;;;;;4440826;32;20204;-74
2021/04/26 10:34:29;;;;;;;1.23;0.90;;;8.80;48.00;;;;;;4442327;32;20210;-73
2021/04/26 10:37:00;;;;;;;1.70;1.00;;;8.80;48.10;;;;;;4442667;32;20507;-74
2021/04/26 10:39:28;;;;;;;1.67;0.90;;;8.60;47.70;;;;;;4441715;32;20518;-75
2021/04/26 10:42:07;;;;;;;1.40;0.80;;;8.50;48.60;;;;;;4440727;32;20139;-74
2021/04/26 10:44:39;;;;;;;1.57;0.80;;;9.60;48.30;;;;;;4440713;32;20138;-74
2021/04/26 10:47:13;;;;;;;0.97;0.70;;;10.30;44.70;;;;;;4440731;32;20171;-72
2021/04/26 10:49:47;;;;;;;1.03;0.70;;;10.10;42.90;;;;;;4441084;32;20154;-75
2021/04/26 10:52:29;;;;;;;1.07;0.90;;;11.10;42.30;;;;;;4439918;32;20420;-72
2021/04/26 10:55:07;;;;;;;1.23;0.73;;;11.80;41.10;;;;;;4441989;32;20146;-73
2021/04/26 10:57:48;;;;;;;1.00;0.80;;;13.00;38.90;;;;;;4440941;32;20424;-73
2021/04/26 11:00:20;;;;;;;1.10;0.60;;;13.10;37.60;;;;;;4441624;32;20186;-72
2021/04/26 11:02:53;;;;;;;1.17;0.70;;;12.80;38.20;;;;;;4440968;32;20451;-73
2021/04/26 11:05:28;;;;;;;1.63;0.70;;;13.90;38.40;;;;;;4441781;32;20461;-74
2021/04/26 11:10:28;;;;;;;3.03;0.80;;;14.30;35.40;;;;;;4442093;32;20449;-76
2021/04/26 11:12:56;;;;;;;1.83;0.77;;;14.60;35.90;;;;;;4439853;32;20150;-74
2021/04/26 11:15:24;;;;;;;1.30;0.80;;;15.20;35.40;;;;;;4440178;32;20139;-73
2021/04/26 11:17:52;;;;;;;1.20;0.80;;;14.10;35.60;;;;;;4439492;32;20231;-74
2021/04/26 11:20:24;;;;;;;1.40;0.87;;;12.40;37.10;;;;;;4440213;32;20488;-73
2021/04/26 11:22:56;;;;;;;1.27;0.80;;;12.00;38.90;;;;;;4442126;32;20695;-72
2021/04/26 11:25:39;;;;;;;1.10;0.80;;;11.20;41.00;;;;;;4440328;32;20142;-72
2021/04/26 11:28:12;;;;;;;1.43;0.77;;;11.10;41.30;;;;;;4441371;32;20199;-72
2021/04/26 11:30:49;;;;;;;0.93;0.70;;;11.60;42.10;;;;;;4440842;32;20472;-73
2021/04/26 11:33:18;;;;;;;2.70;0.90;;;13.10;41.60;;;;;;4441148;32;20148;-72
2021/04/26 11:36:06;;;;;;;2.40;1.00;;;14.30;39.40;;;;;;4441444;32;20227;-73
2021/04/26 11:38:34;;;;;;;2.43;1.00;;;15.40;36.90;;;;;;4439775;32;20172;-73
2021/04/26 11:41:01;;;;;;;1.50;0.80;;;15.40;36.70;;;;;;4441240;32;20138;-72
2021/04/26 11:43:27;;;;;;;1.30;1.20;;;15.30;36.10;;;;;;4439680;32;20200;-74
2021/04/26 11:45:54;;;;;;;1.87;1.20;;;14.50;36.10;;;;;;4439092;32;20193;-72
2021/04/26 11:48:22;;;;;;;2.37;1.10;;;13.30;38.90;;;;;;4439079;32;20153;-72
2021/04/26 11:50:49;;;;;;;2.53;1.33;;;12.20;40.90;;;;;;4439707;32;20158;-71
2021/04/26 11:53:30;;;;;;;2.30;1.10;;;12.20;41.90;;;;;;4439546;32;20205;-71
2021/04/26 11:56:11;;;;;;;3.30;1.50;;;10.60;46.00;;;;;;4439852;32;20164;-71
2021/04/26 11:58:38;;;;;;;3.13;1.40;;;10.40;50.10;;;;;;4439561;32;20189;-71
2021/04/26 12:01:06;;;;;;;5.30;1.30;;;11.10;50.60;;;;;;4439461;32;20399;-73
2021/04/26 12:03:32;;;;;;;2.57;1.40;;;11.60;48.90;;;;;;4438911;32;20166;-73
2021/04/26 12:06:03;;;;;;;1.53;1.40;;;12.80;47.90;;;;;;4438883;32;20531;-76
2021/04/26 12:08:43;;;;;;;2.13;1.30;;;12.70;46.60;;;;;;4440773;32;20448;-77
2021/04/26 12:11:15;;;;;;;3.93;1.30;;;13.30;46.00;;;;;;4439433;32;20534;-75
2021/04/26 12:13:41;;;;;;;4.80;1.50;;;13.70;44.70;;;;;;4440909;32;20139;-75
2021/04/26 12:16:08;;;;;;;3.80;1.30;;;13.70;43.70;;;;;;4439332;32;20138;-73
2021/04/26 12:18:38;;;;;;;1.73;1.10;;;13.90;43.30;;;;;;4438253;32;20147;-74
2021/04/26 12:21:05;;;;;;;3.33;1.10;;;14.30;42.00;;;;;;4438194;32;20219;-74
2021/04/26 12:23:36;;;;;;;1.37;0.90;;;14.30;40.90;;;;;;4435517;32;20188;-76
2021/04/26 12:26:02;;;;;;;1.57;1.10;;;14.70;39.30;;;;;;4438055;32;20158;-75
2021/04/26 12:28:42;;;;;;;1.30;0.93;;;15.40;38.20;;;;;;4438904;32;20547;-75
2021/04/26 12:31:18;;;;;;;2.10;1.30;;;15.20;38.50;;;;;;4439055;32;20166;-71
2021/04/26 12:33:45;;;;;;;2.33;0.97;;;15.60;37.30;;;;;;4439487;32;20224;-74
2021/04/26 12:36:12;;;;;;;1.80;1.00;;;15.80;35.80;;;;;;4433611;32;20173;-72
2021/04/26 12:38:46;;;;;;;1.67;1.20;;;15.80;35.90;;;;;;4439282;32;20162;-74
2021/04/26 12:41:13;;;;;;;2.00;1.00;;;15.50;36.10;;;;;;4438559;32;20157;-74
2021/04/26 12:43:42;;;;;;;2.43;1.13;;;15.90;35.30;;;;;;4438642;32;20499;-75
2021/04/26 12:46:11;;;;;;;1.40;1.17;;;15.80;35.70;;;;;;4439181;32;20154;-76
2021/04/26 12:48:40;;;;;;;1.77;1.10;;;14.90;36.20;;;;;;4439163;32;20155;-75
2021/04/26 12:51:07;;;;;;;1.47;1.20;;;15.00;36.70;;;;;;4438714;32;20560;-76
2021/04/26 12:53:38;;;;;;;2.37;1.10;;;15.00;37.90;;;;;;4438026;32;20211;-73
2021/04/26 12:56:10;;;;;;;2.00;1.17;;;14.50;38.60;;;;;;4438562;32;20151;-73
2021/04/26 12:58:42;;;;;;;2.97;1.20;;;14.60;37.30;;;;;;4439232;32;20263;-73
2021/04/26 13:01:16;;;;;;;1.87;1.10;;;14.10;39.40;;;;;;4436812;32;20195;-72
2021/04/26 13:03:49;;;;;;;1.83;1.20;;;14.30;38.00;;;;;;4438404;32;20168;-73